sensor_id;sensor_type;location;lat;lon;timestamp;P1;durP1;ratioP1;P2;durP2;ratioP2
5147;SDS011;2592;48.140;7.614;2022-12-13T00:01:10;31.47;;;23.30;;
5147;SDS011;2592;48.140;7.614;2022-12-13T00:03:37;28.20;;;22.07;;
5147;SDS011;2592;48.140;7.614;2022-12-13T00:06:03;25.90;;;21.80;;
5147;SDS011;2592;48.140;7.614;2022-12-13T00:08:30;28.60;;;21.60;;
5147;SDS011;2592;48.140;7.614;2022-12-13T00:10:57;30.50;;;21.87;;
5147;SDS011;2592;48.140;7.614;2022-12-13T00:13:24;29.17;;;21.90;;
5147;SDS011;2592;48.140;7.614;2022-12-13T00:15:55;25.83;;;20.43;;
5147;SDS011;2592;48.140;7.614;2022-12-13T00:18:22;27.43;;;21.60;;
5147;SDS011;2592;48.140;7.614;2022-12-13T00:20:48;25.47;;;20.47;;
5147;SDS011;2592;48.140;7.614;2022-12-13T00:23:14;25.53;;;19.73;;
5147;SDS011;2592;48.140;7.614;2022-12-13T00:25:41;26.50;;;20.53;;
5147;SDS011;2592;48.140;7.614;2022-12-13T00:28:07;26.47;;;20.37;;
5147;SDS011;2592;48.140;7.614;2022-12-13T00:30:34;26.00;;;19.90;;
5147;SDS011;2592;48.140;7.614;2022-12-13T00:33:02;25.73;;;19.60;;
5147;SDS011;2592;48.140;7.614;2022-12-13T00:35:28;25.70;;;20.03;;
5147;SDS011;2592;48.140;7.614;2022-12-13T00:37:55;25.00;;;19.00;;
5147;SDS011;2592;48.140;7.614;2022-12-13T00:40:21;25.60;;;20.00;;
5147;SDS011;2592;48.140;7.614;2022-12-13T00:42:47;23.50;;;19.87;;
5147;SDS011;2592;48.140;7.614;2022-12-13T00:45:14;25.20;;;19.30;;
5147;SDS011;2592;48.140;7.614;2022-12-13T00:47:40;24.03;;;18.80;;
5147;SDS011;2592;48.140;7.614;2022-12-13T00:50:08;25.60;;;19.83;;
5147;SDS011;2592;48.140;7.614;2022-12-13T00:52:35;23.63;;;19.03;;
5147;SDS011;2592;48.140;7.614;2022-12-13T00:55:02;29.80;;;22.43;;
5147;SDS011;2592;48.140;7.614;2022-12-13T00:57:28;28.00;;;20.60;;
5147;SDS011;2592;48.140;7.614;2022-12-13T00:59:55;28.83;;;21.30;;
5147;SDS011;2592;48.140;7.614;2022-12-13T01:02:21;33.70;;;24.37;;
5147;SDS011;2592;48.140;7.614;2022-12-13T01:04:48;33.80;;;24.00;;
5147;SDS011;2592;48.140;7.614;2022-12-13T01:07:15;32.93;;;24.93;;
5147;SDS011;2592;48.140;7.614;2022-12-13T01:09:42;31.80;;;23.80;;
5147;SDS011;2592;48.140;7.614;2022-12-13T01:12:08;28.57;;;22.93;;
5147;SDS011;2592;48.140;7.614;2022-12-13T01:14:35;29.43;;;23.40;;
5147;SDS011;2592;48.140;7.614;2022-12-13T01:17:02;31.97;;;22.60;;
5147;SDS011;2592;48.140;7.614;2022-12-13T01:19:29;30.73;;;24.10;;
5147;SDS011;2592;48.140;7.614;2022-12-13T01:21:55;33.40;;;25.30;;
5147;SDS011;2592;48.140;7.614;2022-12-13T01:24:23;30.57;;;24.20;;
5147;SDS011;2592;48.140;7.614;2022-12-13T01:26:50;36.10;;;27.30;;
5147;SDS011;2592;48.140;7.614;2022-12-13T01:29:17;37.50;;;28.37;;
5147;SDS011;2592;48.140;7.614;2022-12-13T01:31:43;32.80;;;25.60;;
5147;SDS011;2592;48.140;7.614;2022-12-13T01:34:10;33.67;;;26.43;;
5147;SDS011;2592;48.140;7.614;2022-12-13T01:36:37;31.73;;;24.20;;
5147;SDS011;2592;48.140;7.614;2022-12-13T01:39:03;32.30;;;25.60;;
5147;SDS011;2592;48.140;7.614;2022-12-13T01:41:31;33.30;;;25.00;;
5147;SDS011;2592;48.140;7.614;2022-12-13T01:43:58;32.73;;;25.70;;
5147;SDS011;2592;48.140;7.614;2022-12-13T01:46:27;32.40;;;24.70;;
5147;SDS011;2592;48.140;7.614;2022-12-13T01:48:56;34.90;;;25.07;;
5147;SDS011;2592;48.140;7.614;2022-12-13T01:51:24;30.90;;;23.53;;
5147;SDS011;2592;48.140;7.614;2022-12-13T01:53:51;35.63;;;25.00;;
5147;SDS011;2592;48.140;7.614;2022-12-13T01:56:19;36.33;;;24.63;;
5147;SDS011;2592;48.140;7.614;2022-12-13T01:58:47;29.10;;;23.03;;
5147;SDS011;2592;48.140;7.614;2022-12-13T02:01:14;36.90;;;25.63;;
5147;SDS011;2592;48.140;7.614;2022-12-13T02:03:41;35.07;;;25.47;;
5147;SDS011;2592;48.140;7.614;2022-12-13T02:06:08;33.43;;;25.40;;
5147;SDS011;2592;48.140;7.614;2022-12-13T02:08:36;33.67;;;25.77;;
5147;SDS011;2592;48.140;7.614;2022-12-13T02:11:04;32.13;;;24.33;;
5147;SDS011;2592;48.140;7.614;2022-12-13T02:13:30;32.07;;;24.47;;
5147;SDS011;2592;48.140;7.614;2022-12-13T02:16:00;33.50;;;23.63;;
5147;SDS011;2592;48.140;7.614;2022-12-13T02:18:32;33.03;;;24.50;;
5147;SDS011;2592;48.140;7.614;2022-12-13T02:21:01;34.20;;;25.10;;
5147;SDS011;2592;48.140;7.614;2022-12-13T02:26:22;36.37;;;28.20;;
5147;SDS011;2592;48.140;7.614;2022-12-13T02:29:00;40.00;;;28.60;;
5147;SDS011;2592;48.140;7.614;2022-12-13T02:31:36;39.37;;;26.63;;
5147;SDS011;2592;48.140;7.614;2022-12-13T02:34:05;41.10;;;29.07;;
5147;SDS011;2592;48.140;7.614;2022-12-13T02:36:34;38.70;;;29.23;;
5147;SDS011;2592;48.140;7.614;2022-12-13T02:39:06;38.27;;;28.20;;
5147;SDS011;2592;48.140;7.614;2022-12-13T02:41:34;43.10;;;27.77;;
5147;SDS011;2592;48.140;7.614;2022-12-13T02:44:04;39.17;;;30.77;;
5147;SDS011;2592;48.140;7.614;2022-12-13T02:46:32;42.33;;;29.90;;
5147;SDS011;2592;48.140;7.614;2022-12-13T02:49:01;40.47;;;29.67;;
5147;SDS011;2592;48.140;7.614;2022-12-13T02:51:28;40.60;;;29.80;;
5147;SDS011;2592;48.140;7.614;2022-12-13T02:53:55;37.40;;;28.53;;
5147;SDS011;2592;48.140;7.614;2022-12-13T02:56:22;36.43;;;27.73;;
5147;SDS011;2592;48.140;7.614;2022-12-13T02:58:48;34.17;;;25.40;;
5147;SDS011;2592;48.140;7.614;2022-12-13T03:01:19;38.97;;;27.70;;
5147;SDS011;2592;48.140;7.614;2022-12-13T03:03:51;38.43;;;28.10;;
5147;SDS011;2592;48.140;7.614;2022-12-13T03:06:23;35.40;;;26.03;;
5147;SDS011;2592;48.140;7.614;2022-12-13T03:08:56;36.57;;;25.97;;
5147;SDS011;2592;48.140;7.614;2022-12-13T03:11:35;34.23;;;24.87;;
5147;SDS011;2592;48.140;7.614;2022-12-13T03:14:20;33.40;;;24.90;;
5147;SDS011;2592;48.140;7.614;2022-12-13T03:16:47;29.67;;;22.80;;
5147;SDS011;2592;48.140;7.614;2022-12-13T03:19:16;29.93;;;24.37;;
5147;SDS011;2592;48.140;7.614;2022-12-13T03:21:46;33.23;;;24.57;;
5147;SDS011;2592;48.140;7.614;2022-12-13T03:24:13;33.70;;;24.37;;
5147;SDS011;2592;48.140;7.614;2022-12-13T03:26:41;31.67;;;24.00;;
5147;SDS011;2592;48.140;7.614;2022-12-13T03:29:07;35.00;;;25.60;;
5147;SDS011;2592;48.140;7.614;2022-12-13T03:31:34;37.50;;;26.70;;
5147;SDS011;2592;48.140;7.614;2022-12-13T03:34:00;36.27;;;24.83;;
5147;SDS011;2592;48.140;7.614;2022-12-13T03:36:26;41.03;;;27.30;;
5147;SDS011;2592;48.140;7.614;2022-12-13T03:38:54;34.07;;;26.03;;
5147;SDS011;2592;48.140;7.614;2022-12-13T03:41:22;30.27;;;24.77;;
5147;SDS011;2592;48.140;7.614;2022-12-13T03:43:55;38.00;;;26.83;;
5147;SDS011;2592;48.140;7.614;2022-12-13T03:46:22;32.17;;;23.80;;
5147;SDS011;2592;48.140;7.614;2022-12-13T03:48:48;32.07;;;24.97;;
5147;SDS011;2592;48.140;7.614;2022-12-13T03:51:14;32.70;;;24.53;;
5147;SDS011;2592;48.140;7.614;2022-12-13T03:53:41;35.20;;;26.27;;
5147;SDS011;2592;48.140;7.614;2022-12-13T03:56:09;37.87;;;28.20;;
5147;SDS011;2592;48.140;7.614;2022-12-13T03:58:36;35.90;;;25.47;;
5147;SDS011;2592;48.140;7.614;2022-12-13T04:01:03;38.43;;;27.27;;
5147;SDS011;2592;48.140;7.614;2022-12-13T04:03:30;34.50;;;25.80;;
5147;SDS011;2592;48.140;7.614;2022-12-13T04:05:56;43.33;;;30.30;;
5147;SDS011;2592;48.140;7.614;2022-12-13T04:08:22;35.60;;;26.03;;
5147;SDS011;2592;48.140;7.614;2022-12-13T04:10:49;40.47;;;27.67;;
5147;SDS011;2592;48.140;7.614;2022-12-13T04:13:16;39.90;;;27.20;;
5147;SDS011;2592;48.140;7.614;2022-12-13T04:15:57;39.50;;;28.97;;
5147;SDS011;2592;48.140;7.614;2022-12-13T04:18:23;38.87;;;28.80;;
5147;SDS011;2592;48.140;7.614;2022-12-13T04:20:50;38.07;;;27.03;;
5147;SDS011;2592;48.140;7.614;2022-12-13T04:23:16;41.70;;;29.13;;
5147;SDS011;2592;48.140;7.614;2022-12-13T04:25:42;36.60;;;26.43;;
5147;SDS011;2592;48.140;7.614;2022-12-13T04:28:09;38.30;;;27.67;;
5147;SDS011;2592;48.140;7.614;2022-12-13T04:30:37;35.93;;;25.33;;
5147;SDS011;2592;48.140;7.614;2022-12-13T04:33:03;35.10;;;26.20;;
5147;SDS011;2592;48.140;7.614;2022-12-13T04:35:30;37.63;;;26.60;;
5147;SDS011;2592;48.140;7.614;2022-12-13T04:37:56;38.47;;;26.43;;
5147;SDS011;2592;48.140;7.614;2022-12-13T04:40:23;38.43;;;27.60;;
5147;SDS011;2592;48.140;7.614;2022-12-13T04:42:49;34.10;;;26.67;;
5147;SDS011;2592;48.140;7.614;2022-12-13T04:45:16;35.53;;;25.90;;
5147;SDS011;2592;48.140;7.614;2022-12-13T04:47:44;34.00;;;25.97;;
5147;SDS011;2592;48.140;7.614;2022-12-13T04:50:10;37.00;;;26.07;;
5147;SDS011;2592;48.140;7.614;2022-12-13T04:52:36;38.60;;;26.50;;
5147;SDS011;2592;48.140;7.614;2022-12-13T04:55:04;35.03;;;27.10;;
5147;SDS011;2592;48.140;7.614;2022-12-13T04:57:30;36.80;;;26.13;;
5147;SDS011;2592;48.140;7.614;2022-12-13T04:59:56;36.13;;;27.17;;
5147;SDS011;2592;48.140;7.614;2022-12-13T05:02:23;37.43;;;26.63;;
5147;SDS011;2592;48.140;7.614;2022-12-13T05:04:51;36.10;;;27.30;;
5147;SDS011;2592;48.140;7.614;2022-12-13T05:07:17;30.73;;;24.43;;
5147;SDS011;2592;48.140;7.614;2022-12-13T05:09:44;34.60;;;24.70;;
5147;SDS011;2592;48.140;7.614;2022-12-13T05:12:10;33.87;;;26.30;;
5147;SDS011;2592;48.140;7.614;2022-12-13T05:14:36;38.63;;;27.97;;
5147;SDS011;2592;48.140;7.614;2022-12-13T05:17:03;33.50;;;24.67;;
5147;SDS011;2592;48.140;7.614;2022-12-13T05:19:29;35.20;;;25.33;;
5147;SDS011;2592;48.140;7.614;2022-12-13T05:21:57;31.60;;;24.30;;
5147;SDS011;2592;48.140;7.614;2022-12-13T05:24:23;36.40;;;26.33;;
5147;SDS011;2592;48.140;7.614;2022-12-13T05:26:49;37.27;;;25.67;;
5147;SDS011;2592;48.140;7.614;2022-12-13T05:29:16;31.57;;;24.20;;
5147;SDS011;2592;48.140;7.614;2022-12-13T05:31:43;35.37;;;24.90;;
5147;SDS011;2592;48.140;7.614;2022-12-13T05:34:09;36.23;;;26.30;;
5147;SDS011;2592;48.140;7.614;2022-12-13T05:36:36;34.77;;;25.23;;
5147;SDS011;2592;48.140;7.614;2022-12-13T05:39:03;31.27;;;24.00;;
5147;SDS011;2592;48.140;7.614;2022-12-13T05:41:31;34.27;;;24.57;;
5147;SDS011;2592;48.140;7.614;2022-12-13T05:43:58;34.70;;;24.73;;
5147;SDS011;2592;48.140;7.614;2022-12-13T05:46:24;34.17;;;23.83;;
5147;SDS011;2592;48.140;7.614;2022-12-13T05:48:50;36.83;;;24.90;;
5147;SDS011;2592;48.140;7.614;2022-12-13T05:51:17;33.07;;;25.87;;
5147;SDS011;2592;48.140;7.614;2022-12-13T05:53:43;32.13;;;23.50;;
5147;SDS011;2592;48.140;7.614;2022-12-13T05:56:12;36.40;;;25.17;;
5147;SDS011;2592;48.140;7.614;2022-12-13T05:58:39;37.67;;;27.03;;
5147;SDS011;2592;48.140;7.614;2022-12-13T06:01:06;37.30;;;26.83;;
5147;SDS011;2592;48.140;7.614;2022-12-13T06:03:33;34.33;;;24.17;;
5147;SDS011;2592;48.140;7.614;2022-12-13T06:05:59;35.80;;;25.97;;
5147;SDS011;2592;48.140;7.614;2022-12-13T06:08:26;33.97;;;25.53;;
5147;SDS011;2592;48.140;7.614;2022-12-13T06:10:53;34.00;;;24.10;;
5147;SDS011;2592;48.140;7.614;2022-12-13T06:13:20;36.70;;;27.33;;
5147;SDS011;2592;48.140;7.614;2022-12-13T06:15:47;35.70;;;26.30;;
5147;SDS011;2592;48.140;7.614;2022-12-13T06:18:13;36.60;;;26.60;;
5147;SDS011;2592;48.140;7.614;2022-12-13T06:20:39;37.33;;;25.87;;
5147;SDS011;2592;48.140;7.614;2022-12-13T06:23:06;34.97;;;24.80;;
5147;SDS011;2592;48.140;7.614;2022-12-13T06:25:32;30.77;;;22.73;;
5147;SDS011;2592;48.140;7.614;2022-12-13T06:27:59;40.83;;;27.30;;
5147;SDS011;2592;48.140;7.614;2022-12-13T06:30:26;38.97;;;27.73;;
5147;SDS011;2592;48.140;7.614;2022-12-13T06:32:53;35.60;;;23.20;;
5147;SDS011;2592;48.140;7.614;2022-12-13T06:35:19;29.00;;;20.13;;
5147;SDS011;2592;48.140;7.614;2022-12-13T06:37:45;31.33;;;23.00;;
5147;SDS011;2592;48.140;7.614;2022-12-13T06:40:16;30.37;;;20.97;;
5147;SDS011;2592;48.140;7.614;2022-12-13T06:42:42;30.30;;;21.97;;
5147;SDS011;2592;48.140;7.614;2022-12-13T06:45:10;26.70;;;20.43;;
5147;SDS011;2592;48.140;7.614;2022-12-13T06:47:37;31.53;;;23.50;;
5147;SDS011;2592;48.140;7.614;2022-12-13T06:50:04;27.60;;;20.30;;
5147;SDS011;2592;48.140;7.614;2022-12-13T06:52:31;26.27;;;20.03;;
5147;SDS011;2592;48.140;7.614;2022-12-13T06:54:57;29.53;;;20.57;;
5147;SDS011;2592;48.140;7.614;2022-12-13T06:57:24;35.60;;;22.37;;
5147;SDS011;2592;48.140;7.614;2022-12-13T06:59:50;40.67;;;27.10;;
5147;SDS011;2592;48.140;7.614;2022-12-13T07:02:16;27.57;;;20.90;;
5147;SDS011;2592;48.140;7.614;2022-12-13T07:04:44;28.40;;;20.87;;
5147;SDS011;2592;48.140;7.614;2022-12-13T07:07:10;22.40;;;17.53;;
5147;SDS011;2592;48.140;7.614;2022-12-13T07:09:37;31.03;;;22.77;;
5147;SDS011;2592;48.140;7.614;2022-12-13T07:12:04;28.10;;;20.13;;
5147;SDS011;2592;48.140;7.614;2022-12-13T07:14:30;26.23;;;20.37;;
5147;SDS011;2592;48.140;7.614;2022-12-13T07:16:57;28.20;;;18.93;;
5147;SDS011;2592;48.140;7.614;2022-12-13T07:19:23;27.13;;;20.67;;
5147;SDS011;2592;48.140;7.614;2022-12-13T07:21:51;24.37;;;17.60;;
5147;SDS011;2592;48.140;7.614;2022-12-13T07:24:17;25.43;;;18.87;;
5147;SDS011;2592;48.140;7.614;2022-12-13T07:26:44;26.80;;;20.40;;
5147;SDS011;2592;48.140;7.614;2022-12-13T07:29:10;25.97;;;20.10;;
5147;SDS011;2592;48.140;7.614;2022-12-13T07:31:37;25.67;;;19.43;;
5147;SDS011;2592;48.140;7.614;2022-12-13T07:34:03;28.67;;;21.63;;
5147;SDS011;2592;48.140;7.614;2022-12-13T07:36:29;28.27;;;19.77;;
5147;SDS011;2592;48.140;7.614;2022-12-13T07:38:57;28.53;;;19.73;;
5147;SDS011;2592;48.140;7.614;2022-12-13T07:41:24;26.50;;;19.43;;
5147;SDS011;2592;48.140;7.614;2022-12-13T07:43:50;25.93;;;19.70;;
5147;SDS011;2592;48.140;7.614;2022-12-13T07:46:17;34.73;;;19.70;;
5147;SDS011;2592;48.140;7.614;2022-12-13T07:48:43;25.77;;;19.10;;
5147;SDS011;2592;48.140;7.614;2022-12-13T07:51:10;25.70;;;18.47;;
5147;SDS011;2592;48.140;7.614;2022-12-13T07:53:37;29.50;;;21.70;;
5147;SDS011;2592;48.140;7.614;2022-12-13T07:56:05;31.33;;;21.50;;
5147;SDS011;2592;48.140;7.614;2022-12-13T07:58:32;30.77;;;21.73;;
5147;SDS011;2592;48.140;7.614;2022-12-13T08:00:59;31.23;;;21.00;;
5147;SDS011;2592;48.140;7.614;2022-12-13T08:03:26;27.03;;;20.50;;
5147;SDS011;2592;48.140;7.614;2022-12-13T08:06:00;27.43;;;20.03;;
5147;SDS011;2592;48.140;7.614;2022-12-13T08:08:26;36.57;;;20.47;;
5147;SDS011;2592;48.140;7.614;2022-12-13T08:10:53;30.83;;;22.27;;
5147;SDS011;2592;48.140;7.614;2022-12-13T08:13:20;28.47;;;20.80;;
5147;SDS011;2592;48.140;7.614;2022-12-13T08:15:47;29.23;;;20.70;;
5147;SDS011;2592;48.140;7.614;2022-12-13T08:18:13;27.83;;;21.27;;
5147;SDS011;2592;48.140;7.614;2022-12-13T08:20:39;35.20;;;24.00;;
5147;SDS011;2592;48.140;7.614;2022-12-13T08:23:06;28.47;;;20.90;;
5147;SDS011;2592;48.140;7.614;2022-12-13T08:25:32;25.87;;;20.50;;
5147;SDS011;2592;48.140;7.614;2022-12-13T08:27:58;26.30;;;20.33;;
5147;SDS011;2592;48.140;7.614;2022-12-13T08:30:26;30.80;;;22.33;;
5147;SDS011;2592;48.140;7.614;2022-12-13T08:32:52;35.23;;;20.50;;
5147;SDS011;2592;48.140;7.614;2022-12-13T08:35:20;34.67;;;23.73;;
5147;SDS011;2592;48.140;7.614;2022-12-13T08:37:46;33.53;;;23.23;;
5147;SDS011;2592;48.140;7.614;2022-12-13T08:40:12;28.50;;;19.83;;
5147;SDS011;2592;48.140;7.614;2022-12-13T08:42:39;32.03;;;21.43;;
5147;SDS011;2592;48.140;7.614;2022-12-13T08:45:06;28.93;;;19.90;;
5147;SDS011;2592;48.140;7.614;2022-12-13T08:47:34;29.77;;;21.77;;
5147;SDS011;2592;48.140;7.614;2022-12-13T08:50:00;26.07;;;20.00;;
5147;SDS011;2592;48.140;7.614;2022-12-13T08:52:27;31.53;;;21.13;;
5147;SDS011;2592;48.140;7.614;2022-12-13T08:54:53;29.50;;;21.80;;
5147;SDS011;2592;48.140;7.614;2022-12-13T08:57:20;34.37;;;21.67;;
5147;SDS011;2592;48.140;7.614;2022-12-13T08:59:46;30.37;;;21.87;;
5147;SDS011;2592;48.140;7.614;2022-12-13T09:02:12;28.67;;;21.93;;
5147;SDS011;2592;48.140;7.614;2022-12-13T09:04:40;30.10;;;21.30;;
5147;SDS011;2592;48.140;7.614;2022-12-13T09:07:06;27.23;;;21.53;;
5147;SDS011;2592;48.140;7.614;2022-12-13T09:09:33;37.90;;;22.77;;
5147;SDS011;2592;48.140;7.614;2022-12-13T09:11:59;26.93;;;21.00;;
5147;SDS011;2592;48.140;7.614;2022-12-13T09:14:26;32.63;;;22.50;;
5147;SDS011;2592;48.140;7.614;2022-12-13T09:16:52;28.03;;;21.37;;
5147;SDS011;2592;48.140;7.614;2022-12-13T09:19:18;34.83;;;23.13;;
5147;SDS011;2592;48.140;7.614;2022-12-13T09:21:47;31.70;;;21.50;;
5147;SDS011;2592;48.140;7.614;2022-12-13T09:24:13;31.23;;;23.90;;
5147;SDS011;2592;48.140;7.614;2022-12-13T09:26:40;31.63;;;23.60;;
5147;SDS011;2592;48.140;7.614;2022-12-13T09:29:06;38.87;;;25.50;;
5147;SDS011;2592;48.140;7.614;2022-12-13T09:31:33;31.40;;;24.07;;
5147;SDS011;2592;48.140;7.614;2022-12-13T09:34:02;33.30;;;23.43;;
5147;SDS011;2592;48.140;7.614;2022-12-13T09:36:28;34.70;;;23.00;;
5147;SDS011;2592;48.140;7.614;2022-12-13T09:38:56;30.60;;;22.20;;
5147;SDS011;2592;48.140;7.614;2022-12-13T09:41:24;31.80;;;23.43;;
5147;SDS011;2592;48.140;7.614;2022-12-13T09:43:54;33.57;;;22.73;;
5147;SDS011;2592;48.140;7.614;2022-12-13T09:46:24;33.03;;;22.33;;
5147;SDS011;2592;48.140;7.614;2022-12-13T09:48:52;37.23;;;23.20;;
5147;SDS011;2592;48.140;7.614;2022-12-13T09:51:19;30.37;;;23.33;;
5147;SDS011;2592;48.140;7.614;2022-12-13T09:53:46;31.33;;;22.17;;
5147;SDS011;2592;48.140;7.614;2022-12-13T09:56:15;29.50;;;22.37;;
5147;SDS011;2592;48.140;7.614;2022-12-13T09:58:43;35.13;;;26.27;;
5147;SDS011;2592;48.140;7.614;2022-12-13T10:01:12;32.73;;;24.40;;
5147;SDS011;2592;48.140;7.614;2022-12-13T10:03:39;34.53;;;25.33;;
5147;SDS011;2592;48.140;7.614;2022-12-13T10:06:11;32.83;;;24.37;;
5147;SDS011;2592;48.140;7.614;2022-12-13T10:08:39;28.20;;;21.37;;
5147;SDS011;2592;48.140;7.614;2022-12-13T10:11:10;29.53;;;23.03;;
5147;SDS011;2592;48.140;7.614;2022-12-13T10:13:38;29.50;;;22.30;;
5147;SDS011;2592;48.140;7.614;2022-12-13T10:16:08;31.60;;;23.67;;
5147;SDS011;2592;48.140;7.614;2022-12-13T10:18:37;31.03;;;22.57;;
5147;SDS011;2592;48.140;7.614;2022-12-13T10:21:06;31.17;;;23.87;;
5147;SDS011;2592;48.140;7.614;2022-12-13T10:23:34;32.37;;;23.27;;
5147;SDS011;2592;48.140;7.614;2022-12-13T10:26:00;32.87;;;24.40;;
5147;SDS011;2592;48.140;7.614;2022-12-13T10:28:28;33.87;;;25.00;;
5147;SDS011;2592;48.140;7.614;2022-12-13T10:30:57;30.77;;;23.10;;
5147;SDS011;2592;48.140;7.614;2022-12-13T10:33:25;31.70;;;23.40;;
5147;SDS011;2592;48.140;7.614;2022-12-13T10:36:06;29.80;;;23.90;;
5147;SDS011;2592;48.140;7.614;2022-12-13T10:38:34;30.17;;;23.73;;
5147;SDS011;2592;48.140;7.614;2022-12-13T10:41:01;31.20;;;22.50;;
5147;SDS011;2592;48.140;7.614;2022-12-13T10:43:27;29.23;;;23.90;;
5147;SDS011;2592;48.140;7.614;2022-12-13T10:45:58;33.17;;;23.30;;
5147;SDS011;2592;48.140;7.614;2022-12-13T10:48:26;30.93;;;23.03;;
5147;SDS011;2592;48.140;7.614;2022-12-13T10:50:57;28.80;;;22.63;;
5147;SDS011;2592;48.140;7.614;2022-12-13T10:53:25;29.90;;;24.60;;
5147;SDS011;2592;48.140;7.614;2022-12-13T10:55:53;31.83;;;25.07;;
5147;SDS011;2592;48.140;7.614;2022-12-13T10:58:20;27.90;;;21.30;;
5147;SDS011;2592;48.140;7.614;2022-12-13T11:00:47;29.87;;;22.40;;
5147;SDS011;2592;48.140;7.614;2022-12-13T11:03:28;31.87;;;24.87;;
5147;SDS011;2592;48.140;7.614;2022-12-13T11:06:00;29.33;;;22.07;;
5147;SDS011;2592;48.140;7.614;2022-12-13T11:08:27;30.20;;;22.43;;
5147;SDS011;2592;48.140;7.614;2022-12-13T11:10:57;32.00;;;22.90;;
5147;SDS011;2592;48.140;7.614;2022-12-13T11:13:26;26.03;;;22.27;;
5147;SDS011;2592;48.140;7.614;2022-12-13T11:15:56;28.93;;;21.37;;
5147;SDS011;2592;48.140;7.614;2022-12-13T11:18:23;31.27;;;23.43;;
5147;SDS011;2592;48.140;7.614;2022-12-13T11:20:53;30.77;;;22.80;;
5147;SDS011;2592;48.140;7.614;2022-12-13T11:23:21;31.73;;;23.63;;
5147;SDS011;2592;48.140;7.614;2022-12-13T11:25:53;27.03;;;21.30;;
5147;SDS011;2592;48.140;7.614;2022-12-13T11:28:25;30.17;;;21.50;;
5147;SDS011;2592;48.140;7.614;2022-12-13T11:30:57;26.43;;;21.77;;
5147;SDS011;2592;48.140;7.614;2022-12-13T11:33:26;28.70;;;21.60;;
5147;SDS011;2592;48.140;7.614;2022-12-13T11:36:01;28.70;;;22.13;;
5147;SDS011;2592;48.140;7.614;2022-12-13T11:38:33;32.80;;;21.73;;
5147;SDS011;2592;48.140;7.614;2022-12-13T11:41:02;33.20;;;21.80;;
5147;SDS011;2592;48.140;7.614;2022-12-13T11:43:34;26.20;;;20.50;;
5147;SDS011;2592;48.140;7.614;2022-12-13T11:46:03;28.10;;;22.93;;
5147;SDS011;2592;48.140;7.614;2022-12-13T11:48:33;28.63;;;24.63;;
5147;SDS011;2592;48.140;7.614;2022-12-13T11:51:03;29.40;;;24.10;;
5147;SDS011;2592;48.140;7.614;2022-12-13T11:53:32;27.77;;;22.10;;
5147;SDS011;2592;48.140;7.614;2022-12-13T11:56:02;26.50;;;21.33;;
5147;SDS011;2592;48.140;7.614;2022-12-13T11:58:32;28.87;;;22.43;;
5147;SDS011;2592;48.140;7.614;2022-12-13T12:01:00;29.03;;;21.43;;
5147;SDS011;2592;48.140;7.614;2022-12-13T12:03:30;28.47;;;23.50;;
5147;SDS011;2592;48.140;7.614;2022-12-13T12:06:01;29.90;;;22.77;;
5147;SDS011;2592;48.140;7.614;2022-12-13T12:08:32;28.33;;;21.30;;
5147;SDS011;2592;48.140;7.614;2022-12-13T12:11:02;31.63;;;22.33;;
5147;SDS011;2592;48.140;7.614;2022-12-13T12:13:33;27.90;;;21.37;;
5147;SDS011;2592;48.140;7.614;2022-12-13T12:16:05;23.60;;;20.47;;
5147;SDS011;2592;48.140;7.614;2022-12-13T12:18:34;33.10;;;23.57;;
5147;SDS011;2592;48.140;7.614;2022-12-13T12:21:07;32.40;;;23.63;;
5147;SDS011;2592;48.140;7.614;2022-12-13T12:23:39;28.10;;;21.33;;
5147;SDS011;2592;48.140;7.614;2022-12-13T12:26:08;28.93;;;23.07;;
5147;SDS011;2592;48.140;7.614;2022-12-13T12:28:39;28.10;;;22.70;;
5147;SDS011;2592;48.140;7.614;2022-12-13T12:31:12;27.53;;;21.13;;
5147;SDS011;2592;48.140;7.614;2022-12-13T12:33:43;31.33;;;24.10;;
5147;SDS011;2592;48.140;7.614;2022-12-13T12:36:22;35.07;;;25.40;;
5147;SDS011;2592;48.140;7.614;2022-12-13T12:39:04;35.90;;;26.97;;
5147;SDS011;2592;48.140;7.614;2022-12-13T12:41:39;27.37;;;22.33;;
5147;SDS011;2592;48.140;7.614;2022-12-13T12:44:12;28.40;;;22.90;;
5147;SDS011;2592;48.140;7.614;2022-12-13T12:46:45;31.17;;;24.20;;
5147;SDS011;2592;48.140;7.614;2022-12-13T12:49:22;35.00;;;22.43;;
5147;SDS011;2592;48.140;7.614;2022-12-13T12:51:54;32.47;;;25.10;;
5147;SDS011;2592;48.140;7.614;2022-12-13T12:54:30;30.33;;;23.60;;
5147;SDS011;2592;48.140;7.614;2022-12-13T12:56:58;28.50;;;22.90;;
5147;SDS011;2592;48.140;7.614;2022-12-13T12:59:29;29.60;;;22.30;;
5147;SDS011;2592;48.140;7.614;2022-12-13T13:01:59;34.43;;;22.10;;
5147;SDS011;2592;48.140;7.614;2022-12-13T13:04:29;31.40;;;24.00;;
5147;SDS011;2592;48.140;7.614;2022-12-13T13:06:57;30.70;;;23.33;;
5147;SDS011;2592;48.140;7.614;2022-12-13T13:09:25;31.00;;;24.70;;
5147;SDS011;2592;48.140;7.614;2022-12-13T13:11:54;28.33;;;22.17;;
5147;SDS011;2592;48.140;7.614;2022-12-13T13:14:30;29.80;;;23.17;;
5147;SDS011;2592;48.140;7.614;2022-12-13T13:16:57;29.17;;;23.17;;
5147;SDS011;2592;48.140;7.614;2022-12-13T13:19:43;29.73;;;23.90;;
5147;SDS011;2592;48.140;7.614;2022-12-13T13:22:26;36.07;;;24.23;;
5147;SDS011;2592;48.140;7.614;2022-12-13T13:25:13;31.13;;;22.80;;
5147;SDS011;2592;48.140;7.614;2022-12-13T13:27:45;25.10;;;22.20;;
5147;SDS011;2592;48.140;7.614;2022-12-13T13:30:15;31.10;;;24.13;;
5147;SDS011;2592;48.140;7.614;2022-12-13T13:32:42;28.13;;;22.20;;
5147;SDS011;2592;48.140;7.614;2022-12-13T13:37:54;28.67;;;22.50;;
5147;SDS011;2592;48.140;7.614;2022-12-13T13:40:25;27.57;;;23.47;;
5147;SDS011;2592;48.140;7.614;2022-12-13T13:43:01;35.13;;;23.57;;
5147;SDS011;2592;48.140;7.614;2022-12-13T13:45:28;29.63;;;23.60;;
5147;SDS011;2592;48.140;7.614;2022-12-13T13:50:57;28.73;;;22.57;;
5147;SDS011;2592;48.140;7.614;2022-12-13T13:53:34;34.20;;;23.80;;
5147;SDS011;2592;48.140;7.614;2022-12-13T13:56:09;30.23;;;23.07;;
5147;SDS011;2592;48.140;7.614;2022-12-13T13:58:44;32.40;;;25.13;;
5147;SDS011;2592;48.140;7.614;2022-12-13T14:04:10;29.40;;;21.90;;
5147;SDS011;2592;48.140;7.614;2022-12-13T14:09:39;29.90;;;23.77;;
5147;SDS011;2592;48.140;7.614;2022-12-13T14:12:28;32.97;;;25.30;;
5147;SDS011;2592;48.140;7.614;2022-12-13T14:15:15;29.70;;;23.73;;
5147;SDS011;2592;48.140;7.614;2022-12-13T14:20:44;32.77;;;25.53;;
5147;SDS011;2592;48.140;7.614;2022-12-13T14:23:14;40.77;;;29.83;;
5147;SDS011;2592;48.140;7.614;2022-12-13T14:25:53;28.47;;;22.30;;
5147;SDS011;2592;48.140;7.614;2022-12-13T14:28:24;31.03;;;24.97;;
5147;SDS011;2592;48.140;7.614;2022-12-13T14:30:54;30.67;;;23.00;;
5147;SDS011;2592;48.140;7.614;2022-12-13T14:33:21;31.43;;;23.60;;
5147;SDS011;2592;48.140;7.614;2022-12-13T14:35:51;30.20;;;24.30;;
5147;SDS011;2592;48.140;7.614;2022-12-13T14:38:19;29.43;;;22.63;;
5147;SDS011;2592;48.140;7.614;2022-12-13T14:40:48;31.10;;;23.57;;
5147;SDS011;2592;48.140;7.614;2022-12-13T14:43:20;33.50;;;24.77;;
5147;SDS011;2592;48.140;7.614;2022-12-13T14:45:50;30.80;;;23.63;;
5147;SDS011;2592;48.140;7.614;2022-12-13T14:48:19;31.40;;;24.20;;
5147;SDS011;2592;48.140;7.614;2022-12-13T14:50:46;31.80;;;24.67;;
5147;SDS011;2592;48.140;7.614;2022-12-13T14:53:17;33.43;;;25.40;;
5147;SDS011;2592;48.140;7.614;2022-12-13T14:56:00;33.37;;;27.57;;
5147;SDS011;2592;48.140;7.614;2022-12-13T14:58:27;31.57;;;24.13;;
5147;SDS011;2592;48.140;7.614;2022-12-13T15:00:53;28.20;;;23.50;;
5147;SDS011;2592;48.140;7.614;2022-12-13T15:03:22;29.87;;;23.90;;
5147;SDS011;2592;48.140;7.614;2022-12-13T15:05:50;32.13;;;24.83;;
5147;SDS011;2592;48.140;7.614;2022-12-13T15:08:17;27.03;;;22.37;;
5147;SDS011;2592;48.140;7.614;2022-12-13T15:10:45;28.67;;;22.20;;
5147;SDS011;2592;48.140;7.614;2022-12-13T15:13:17;30.93;;;23.63;;